sensor_id;sensor_type;location;lat;lon;timestamp;P1;durP1;ratioP1;P2;durP2;ratioP2
52158;SDS011;38145;53.182;6.284;2023-05-02T00:00:37;11.15;;;5.78;;
52158;SDS011;38145;53.182;6.284;2023-05-02T00:03:03;12.77;;;5.47;;
52158;SDS011;38145;53.182;6.284;2023-05-02T00:05:30;9.43;;;4.97;;
52158;SDS011;38145;53.182;6.284;2023-05-02T00:07:56;12.40;;;4.93;;
52158;SDS011;38145;53.182;6.284;2023-05-02T00:10:22;7.22;;;4.65;;
52158;SDS011;38145;53.182;6.284;2023-05-02T00:12:47;14.98;;;5.32;;
52158;SDS011;38145;53.182;6.284;2023-05-02T00:15:13;13.73;;;4.45;;
52158;SDS011;38145;53.182;6.284;2023-05-02T00:17:39;10.75;;;4.72;;
52158;SDS011;38145;53.182;6.284;2023-05-02T00:20:07;8.25;;;4.03;;
52158;SDS011;38145;53.182;6.284;2023-05-02T00:22:34;16.50;;;4.25;;
52158;SDS011;38145;53.182;6.284;2023-05-02T00:25:00;8.52;;;4.20;;
52158;SDS011;38145;53.182;6.284;2023-05-02T00:27:26;11.35;;;4.32;;
52158;SDS011;38145;53.182;6.284;2023-05-02T00:29:53;10.43;;;4.40;;
52158;SDS011;38145;53.182;6.284;2023-05-02T00:32:19;12.07;;;3.95;;
52158;SDS011;38145;53.182;6.284;2023-05-02T00:34:45;10.50;;;4.00;;
52158;SDS011;38145;53.182;6.284;2023-05-02T00:37:11;11.60;;;3.90;;
52158;SDS011;38145;53.182;6.284;2023-05-02T00:39:37;11.88;;;4.32;;
52158;SDS011;38145;53.182;6.284;2023-05-02T00:42:03;5.35;;;3.53;;
52158;SDS011;38145;53.182;6.284;2023-05-02T00:44:30;8.15;;;3.83;;
52158;SDS011;38145;53.182;6.284;2023-05-02T00:46:55;12.10;;;4.60;;
52158;SDS011;38145;53.182;6.284;2023-05-02T00:49:22;11.35;;;4.10;;
52158;SDS011;38145;53.182;6.284;2023-05-02T00:51:48;13.95;;;4.00;;
52158;SDS011;38145;53.182;6.284;2023-05-02T00:54:14;11.55;;;4.40;;
52158;SDS011;38145;53.182;6.284;2023-05-02T00:56:40;7.85;;;3.80;;
52158;SDS011;38145;53.182;6.284;2023-05-02T00:59:07;6.75;;;3.78;;
52158;SDS011;38145;53.182;6.284;2023-05-02T01:01:38;14.65;;;4.60;;
52158;SDS011;38145;53.182;6.284;2023-05-02T01:04:30;12.13;;;4.03;;
52158;SDS011;38145;53.182;6.284;2023-05-02T01:10:13;12.38;;;4.50;;
52158;SDS011;38145;53.182;6.284;2023-05-02T01:12:47;13.57;;;4.97;;
52158;SDS011;38145;53.182;6.284;2023-05-02T01:15:38;20.00;;;5.82;;
52158;SDS011;38145;53.182;6.284;2023-05-02T01:20:35;25.80;;;6.38;;
52158;SDS011;38145;53.182;6.284;2023-05-02T01:23:05;17.30;;;5.97;;
52158;SDS011;38145;53.182;6.284;2023-05-02T01:31:03;23.85;;;5.90;;
52158;SDS011;38145;53.182;6.284;2023-05-02T01:33:30;23.00;;;6.15;;
52158;SDS011;38145;53.182;6.284;2023-05-02T01:35:59;28.33;;;6.55;;
52158;SDS011;38145;53.182;6.284;2023-05-02T01:38:27;22.38;;;6.38;;
52158;SDS011;38145;53.182;6.284;2023-05-02T01:40:54;19.40;;;4.93;;
52158;SDS011;38145;53.182;6.284;2023-05-02T01:43:27;19.20;;;5.75;;
52158;SDS011;38145;53.182;6.284;2023-05-02T01:45:54;23.60;;;5.57;;
52158;SDS011;38145;53.182;6.284;2023-05-02T01:48:22;26.10;;;5.43;;
52158;SDS011;38145;53.182;6.284;2023-05-02T01:50:50;16.00;;;5.22;;
52158;SDS011;38145;53.182;6.284;2023-05-02T01:53:17;25.58;;;5.65;;
52158;SDS011;38145;53.182;6.284;2023-05-02T01:55:46;23.75;;;5.45;;
52158;SDS011;38145;53.182;6.284;2023-05-02T01:58:14;19.88;;;5.47;;
52158;SDS011;38145;53.182;6.284;2023-05-02T02:00:43;29.48;;;7.03;;
52158;SDS011;38145;53.182;6.284;2023-05-02T02:03:10;30.25;;;5.57;;
52158;SDS011;38145;53.182;6.284;2023-05-02T02:05:38;26.10;;;5.75;;
52158;SDS011;38145;53.182;6.284;2023-05-02T02:08:05;26.52;;;6.55;;
52158;SDS011;38145;53.182;6.284;2023-05-02T02:10:34;22.27;;;6.75;;
52158;SDS011;38145;53.182;6.284;2023-05-02T02:13:05;24.15;;;5.50;;
52158;SDS011;38145;53.182;6.284;2023-05-02T02:15:52;23.98;;;5.22;;
52158;SDS011;38145;53.182;6.284;2023-05-02T02:18:24;23.05;;;4.82;;
52158;SDS011;38145;53.182;6.284;2023-05-02T02:23:18;19.58;;;5.03;;
52158;SDS011;38145;53.182;6.284;2023-05-02T02:25:47;19.05;;;5.10;;
52158;SDS011;38145;53.182;6.284;2023-05-02T02:28:15;18.33;;;5.15;;
52158;SDS011;38145;53.182;6.284;2023-05-02T02:30:41;17.45;;;4.75;;
52158;SDS011;38145;53.182;6.284;2023-05-02T02:33:07;19.08;;;6.40;;
52158;SDS011;38145;53.182;6.284;2023-05-02T02:35:36;19.75;;;5.18;;
52158;SDS011;38145;53.182;6.284;2023-05-02T02:38:09;21.55;;;5.25;;
52158;SDS011;38145;53.182;6.284;2023-05-02T02:40:48;26.77;;;5.88;;
52158;SDS011;38145;53.182;6.284;2023-05-02T02:43:32;27.30;;;5.30;;
52158;SDS011;38145;53.182;6.284;2023-05-02T02:46:10;16.23;;;5.10;;
52158;SDS011;38145;53.182;6.284;2023-05-02T02:48:47;15.80;;;4.35;;
52158;SDS011;38145;53.182;6.284;2023-05-02T02:56:35;16.75;;;4.38;;
52158;SDS011;38145;53.182;6.284;2023-05-02T02:59:05;16.88;;;4.80;;
52158;SDS011;38145;53.182;6.284;2023-05-02T03:01:40;18.67;;;4.47;;
52158;SDS011;38145;53.182;6.284;2023-05-02T03:04:11;23.33;;;4.80;;
52158;SDS011;38145;53.182;6.284;2023-05-02T03:06:40;22.02;;;4.47;;
52158;SDS011;38145;53.182;6.284;2023-05-02T03:09:13;21.08;;;5.40;;
52158;SDS011;38145;53.182;6.284;2023-05-02T03:11:42;14.50;;;4.25;;
52158;SDS011;38145;53.182;6.284;2023-05-02T03:14:08;20.58;;;4.13;;
52158;SDS011;38145;53.182;6.284;2023-05-02T03:16:36;19.10;;;4.03;;
52158;SDS011;38145;53.182;6.284;2023-05-02T03:19:03;21.48;;;5.13;;
52158;SDS011;38145;53.182;6.284;2023-05-02T03:21:31;19.73;;;3.30;;
52158;SDS011;38145;53.182;6.284;2023-05-02T03:23:58;20.58;;;3.30;;
52158;SDS011;38145;53.182;6.284;2023-05-02T03:26:26;21.38;;;3.50;;
52158;SDS011;38145;53.182;6.284;2023-05-02T03:28:52;16.67;;;3.03;;
52158;SDS011;38145;53.182;6.284;2023-05-02T03:31:19;16.80;;;3.55;;
52158;SDS011;38145;53.182;6.284;2023-05-02T03:33:45;22.40;;;3.90;;
52158;SDS011;38145;53.182;6.284;2023-05-02T03:36:11;13.82;;;4.35;;
52158;SDS011;38145;53.182;6.284;2023-05-02T03:38:37;9.73;;;3.00;;
52158;SDS011;38145;53.182;6.284;2023-05-02T03:41:03;18.00;;;3.25;;
52158;SDS011;38145;53.182;6.284;2023-05-02T03:43:29;14.65;;;3.63;;
52158;SDS011;38145;53.182;6.284;2023-05-02T03:45:56;22.90;;;4.00;;
52158;SDS011;38145;53.182;6.284;2023-05-02T03:48:22;20.13;;;3.67;;
52158;SDS011;38145;53.182;6.284;2023-05-02T03:50:49;16.80;;;5.47;;
52158;SDS011;38145;53.182;6.284;2023-05-02T03:53:15;14.43;;;2.63;;
52158;SDS011;38145;53.182;6.284;2023-05-02T03:55:41;12.85;;;3.25;;
52158;SDS011;38145;53.182;6.284;2023-05-02T03:58:08;10.07;;;2.33;;
52158;SDS011;38145;53.182;6.284;2023-05-02T04:00:35;8.93;;;2.15;;
52158;SDS011;38145;53.182;6.284;2023-05-02T04:03:02;12.67;;;3.40;;
52158;SDS011;38145;53.182;6.284;2023-05-02T04:05:28;9.43;;;2.60;;
52158;SDS011;38145;53.182;6.284;2023-05-02T04:07:55;6.88;;;2.17;;
52158;SDS011;38145;53.182;6.284;2023-05-02T04:10:21;6.18;;;1.88;;
52158;SDS011;38145;53.182;6.284;2023-05-02T04:12:47;7.75;;;2.03;;
52158;SDS011;38145;53.182;6.284;2023-05-02T04:15:13;7.95;;;2.42;;
52158;SDS011;38145;53.182;6.284;2023-05-02T04:17:39;9.85;;;2.67;;
52158;SDS011;38145;53.182;6.284;2023-05-02T04:20:05;7.30;;;3.08;;
52158;SDS011;38145;53.182;6.284;2023-05-02T04:22:32;10.05;;;2.47;;
52158;SDS011;38145;53.182;6.284;2023-05-02T04:24:58;11.35;;;1.92;;
52158;SDS011;38145;53.182;6.284;2023-05-02T04:27:24;8.25;;;3.08;;
52158;SDS011;38145;53.182;6.284;2023-05-02T04:29:50;6.65;;;1.90;;
52158;SDS011;38145;53.182;6.284;2023-05-02T04:32:17;12.40;;;2.70;;
52158;SDS011;38145;53.182;6.284;2023-05-02T04:34:44;15.60;;;2.47;;
52158;SDS011;38145;53.182;6.284;2023-05-02T04:37:09;7.35;;;2.33;;
52158;SDS011;38145;53.182;6.284;2023-05-02T04:39:35;15.80;;;2.72;;
52158;SDS011;38145;53.182;6.284;2023-05-02T04:42:02;8.80;;;1.90;;
52158;SDS011;38145;53.182;6.284;2023-05-02T04:44:28;9.90;;;2.28;;
52158;SDS011;38145;53.182;6.284;2023-05-02T04:46:53;11.27;;;2.05;;
52158;SDS011;38145;53.182;6.284;2023-05-02T04:49:19;11.27;;;2.60;;
52158;SDS011;38145;53.182;6.284;2023-05-02T04:51:45;9.57;;;2.58;;
52158;SDS011;38145;53.182;6.284;2023-05-02T04:54:11;10.90;;;2.72;;
52158;SDS011;38145;53.182;6.284;2023-05-02T04:56:37;12.27;;;2.75;;
52158;SDS011;38145;53.182;6.284;2023-05-02T04:59:03;10.07;;;2.40;;
52158;SDS011;38145;53.182;6.284;2023-05-02T05:01:29;10.40;;;3.33;;
52158;SDS011;38145;53.182;6.284;2023-05-02T05:03:55;10.00;;;2.75;;
52158;SDS011;38145;53.182;6.284;2023-05-02T05:06:21;10.95;;;3.50;;
52158;SDS011;38145;53.182;6.284;2023-05-02T05:08:47;8.95;;;1.95;;
52158;SDS011;38145;53.182;6.284;2023-05-02T05:11:13;12.20;;;3.10;;
52158;SDS011;38145;53.182;6.284;2023-05-02T05:13:40;7.10;;;2.40;;
52158;SDS011;38145;53.182;6.284;2023-05-02T05:16:07;7.55;;;2.80;;
52158;SDS011;38145;53.182;6.284;2023-05-02T05:18:33;10.40;;;2.53;;
52158;SDS011;38145;53.182;6.284;2023-05-02T05:21:06;7.60;;;2.53;;
52158;SDS011;38145;53.182;6.284;2023-05-02T05:23:32;11.98;;;3.05;;
52158;SDS011;38145;53.182;6.284;2023-05-02T05:26:11;12.07;;;2.45;;
52158;SDS011;38145;53.182;6.284;2023-05-02T05:28:39;12.00;;;3.05;;
52158;SDS011;38145;53.182;6.284;2023-05-02T05:31:07;10.48;;;2.75;;
52158;SDS011;38145;53.182;6.284;2023-05-02T05:33:34;11.38;;;3.00;;
52158;SDS011;38145;53.182;6.284;2023-05-02T05:36:02;7.47;;;2.40;;
52158;SDS011;38145;53.182;6.284;2023-05-02T05:38:30;12.13;;;2.65;;
52158;SDS011;38145;53.182;6.284;2023-05-02T05:40:56;13.90;;;3.47;;
52158;SDS011;38145;53.182;6.284;2023-05-02T05:43:22;9.77;;;2.88;;
52158;SDS011;38145;53.182;6.284;2023-05-02T05:45:50;9.63;;;2.42;;
52158;SDS011;38145;53.182;6.284;2023-05-02T05:48:17;13.55;;;2.53;;
52158;SDS011;38145;53.182;6.284;2023-05-02T05:50:42;9.77;;;2.40;;
52158;SDS011;38145;53.182;6.284;2023-05-02T05:53:08;14.70;;;2.65;;
52158;SDS011;38145;53.182;6.284;2023-05-02T05:55:34;9.55;;;2.42;;
52158;SDS011;38145;53.182;6.284;2023-05-02T05:58:02;8.18;;;2.63;;
52158;SDS011;38145;53.182;6.284;2023-05-02T06:00:28;9.05;;;2.60;;
52158;SDS011;38145;53.182;6.284;2023-05-02T06:02:54;9.52;;;3.58;;
52158;SDS011;38145;53.182;6.284;2023-05-02T06:05:20;13.88;;;3.35;;
52158;SDS011;38145;53.182;6.284;2023-05-02T06:07:46;13.05;;;3.30;;
52158;SDS011;38145;53.182;6.284;2023-05-02T06:10:12;10.55;;;3.17;;
52158;SDS011;38145;53.182;6.284;2023-05-02T06:12:38;9.88;;;3.22;;
52158;SDS011;38145;53.182;6.284;2023-05-02T06:15:04;9.30;;;2.90;;
52158;SDS011;38145;53.182;6.284;2023-05-02T06:17:30;11.15;;;2.90;;
52158;SDS011;38145;53.182;6.284;2023-05-02T06:19:56;10.07;;;2.65;;
52158;SDS011;38145;53.182;6.284;2023-05-02T06:22:22;14.43;;;4.32;;
52158;SDS011;38145;53.182;6.284;2023-05-02T06:24:48;12.43;;;4.00;;
52158;SDS011;38145;53.182;6.284;2023-05-02T06:27:13;13.20;;;3.63;;
52158;SDS011;38145;53.182;6.284;2023-05-02T06:29:40;10.30;;;3.10;;
52158;SDS011;38145;53.182;6.284;2023-05-02T06:32:06;10.18;;;3.38;;
52158;SDS011;38145;53.182;6.284;2023-05-02T06:34:32;14.55;;;3.35;;
52158;SDS011;38145;53.182;6.284;2023-05-02T06:36:58;7.93;;;2.80;;
52158;SDS011;38145;53.182;6.284;2023-05-02T06:39:24;14.77;;;4.20;;
52158;SDS011;38145;53.182;6.284;2023-05-02T06:41:50;14.27;;;3.33;;
52158;SDS011;38145;53.182;6.284;2023-05-02T06:44:16;10.63;;;3.92;;
52158;SDS011;38145;53.182;6.284;2023-05-02T06:46:42;12.93;;;3.03;;
52158;SDS011;38145;53.182;6.284;2023-05-02T06:49:07;15.02;;;3.10;;
52158;SDS011;38145;53.182;6.284;2023-05-02T06:51:33;9.23;;;2.92;;
52158;SDS011;38145;53.182;6.284;2023-05-02T06:53:59;9.55;;;3.00;;
52158;SDS011;38145;53.182;6.284;2023-05-02T06:56:25;11.65;;;3.15;;
52158;SDS011;38145;53.182;6.284;2023-05-02T06:58:51;10.90;;;3.63;;
52158;SDS011;38145;53.182;6.284;2023-05-02T07:01:17;7.03;;;2.75;;
52158;SDS011;38145;53.182;6.284;2023-05-02T07:03:44;8.80;;;2.63;;
52158;SDS011;38145;53.182;6.284;2023-05-02T07:06:11;7.82;;;3.53;;
52158;SDS011;38145;53.182;6.284;2023-05-02T07:08:37;10.75;;;3.47;;
52158;SDS011;38145;53.182;6.284;2023-05-02T07:11:03;7.90;;;3.10;;
52158;SDS011;38145;53.182;6.284;2023-05-02T07:13:28;10.18;;;2.60;;
52158;SDS011;38145;53.182;6.284;2023-05-02T07:15:55;9.68;;;3.50;;
52158;SDS011;38145;53.182;6.284;2023-05-02T07:18:22;9.18;;;2.72;;
52158;SDS011;38145;53.182;6.284;2023-05-02T07:20:48;18.60;;;3.90;;
52158;SDS011;38145;53.182;6.284;2023-05-02T07:23:14;13.30;;;2.95;;
52158;SDS011;38145;53.182;6.284;2023-05-02T07:25:40;12.40;;;3.15;;
52158;SDS011;38145;53.182;6.284;2023-05-02T07:28:06;10.93;;;2.80;;
52158;SDS011;38145;53.182;6.284;2023-05-02T07:30:32;7.88;;;2.17;;
52158;SDS011;38145;53.182;6.284;2023-05-02T07:32:58;9.65;;;2.78;;
52158;SDS011;38145;53.182;6.284;2023-05-02T07:35:23;10.35;;;2.67;;
52158;SDS011;38145;53.182;6.284;2023-05-02T07:37:50;7.13;;;2.80;;
52158;SDS011;38145;53.182;6.284;2023-05-02T07:40:16;16.00;;;3.10;;
52158;SDS011;38145;53.182;6.284;2023-05-02T07:42:42;12.73;;;2.80;;
52158;SDS011;38145;53.182;6.284;2023-05-02T07:45:08;9.13;;;2.72;;
52158;SDS011;38145;53.182;6.284;2023-05-02T07:47:34;8.25;;;2.85;;
52158;SDS011;38145;53.182;6.284;2023-05-02T07:50:01;9.02;;;2.70;;
52158;SDS011;38145;53.182;6.284;2023-05-02T07:52:28;4.60;;;1.83;;
52158;SDS011;38145;53.182;6.284;2023-05-02T07:54:54;6.22;;;1.92;;
52158;SDS011;38145;53.182;6.284;2023-05-02T07:57:20;9.18;;;2.28;;
52158;SDS011;38145;53.182;6.284;2023-05-02T07:59:47;5.25;;;2.20;;
52158;SDS011;38145;53.182;6.284;2023-05-02T08:02:13;8.18;;;2.35;;
52158;SDS011;38145;53.182;6.284;2023-05-02T08:04:41;9.63;;;2.70;;
52158;SDS011;38145;53.182;6.284;2023-05-02T08:07:07;8.23;;;2.40;;
52158;SDS011;38145;53.182;6.284;2023-05-02T08:09:33;7.47;;;2.40;;
52158;SDS011;38145;53.182;6.284;2023-05-02T08:11:59;7.15;;;2.40;;
52158;SDS011;38145;53.182;6.284;2023-05-02T08:14:26;5.45;;;2.38;;
52158;SDS011;38145;53.182;6.284;2023-05-02T08:16:53;11.52;;;2.40;;
52158;SDS011;38145;53.182;6.284;2023-05-02T08:19:18;6.00;;;2.55;;
52158;SDS011;38145;53.182;6.284;2023-05-02T08:21:44;7.80;;;2.15;;
52158;SDS011;38145;53.182;6.284;2023-05-02T08:24:10;12.70;;;2.42;;
52158;SDS011;38145;53.182;6.284;2023-05-02T08:26:36;8.55;;;2.10;;
52158;SDS011;38145;53.182;6.284;2023-05-02T08:29:02;7.30;;;2.35;;
52158;SDS011;38145;53.182;6.284;2023-05-02T08:31:28;11.05;;;1.98;;
52158;SDS011;38145;53.182;6.284;2023-05-02T08:33:55;3.95;;;1.95;;
52158;SDS011;38145;53.182;6.284;2023-05-02T08:36:21;5.68;;;1.58;;
52158;SDS011;38145;53.182;6.284;2023-05-02T08:38:47;9.07;;;2.20;;
52158;SDS011;38145;53.182;6.284;2023-05-02T08:41:14;5.22;;;1.73;;
52158;SDS011;38145;53.182;6.284;2023-05-02T08:43:42;5.82;;;2.08;;
52158;SDS011;38145;53.182;6.284;2023-05-02T08:46:09;9.47;;;2.00;;
52158;SDS011;38145;53.182;6.284;2023-05-02T08:48:36;9.15;;;2.40;;
52158;SDS011;38145;53.182;6.284;2023-05-02T08:51:05;6.72;;;1.50;;
52158;SDS011;38145;53.182;6.284;2023-05-02T08:53:34;5.50;;;1.90;;
52158;SDS011;38145;53.182;6.284;2023-05-02T08:56:01;7.57;;;1.80;;
52158;SDS011;38145;53.182;6.284;2023-05-02T08:58:27;5.57;;;1.88;;
52158;SDS011;38145;53.182;6.284;2023-05-02T09:00:55;6.32;;;1.25;;
52158;SDS011;38145;53.182;6.284;2023-05-02T09:08:30;6.20;;;1.23;;
52158;SDS011;38145;53.182;6.284;2023-05-02T09:10:56;8.13;;;1.55;;
52158;SDS011;38145;53.182;6.284;2023-05-02T09:13:30;5.28;;;1.30;;
52158;SDS011;38145;53.182;6.284;2023-05-02T09:16:00;3.83;;;1.20;;
52158;SDS011;38145;53.182;6.284;2023-05-02T09:18:28;5.57;;;1.20;;
52158;SDS011;38145;53.182;6.284;2023-05-02T09:20:56;3.90;;;0.88;;
52158;SDS011;38145;53.182;6.284;2023-05-02T09:23:31;3.17;;;1.02;;
52158;SDS011;38145;53.182;6.284;2023-05-02T09:26:01;6.55;;;1.20;;
52158;SDS011;38145;53.182;6.284;2023-05-02T09:28:45;4.13;;;1.00;;
52158;SDS011;38145;53.182;6.284;2023-05-02T09:31:14;2.58;;;0.82;;
52158;SDS011;38145;53.182;6.284;2023-05-02T09:33:42;2.58;;;1.17;;
52158;SDS011;38145;53.182;6.284;2023-05-02T09:36:11;7.82;;;1.27;;
52158;SDS011;38145;53.182;6.284;2023-05-02T09:38:39;1.98;;;0.90;;
52158;SDS011;38145;53.182;6.284;2023-05-02T09:41:05;5.97;;;1.38;;
52158;SDS011;38145;53.182;6.284;2023-05-02T09:43:31;6.53;;;1.40;;
52158;SDS011;38145;53.182;6.284;2023-05-02T09:45:58;5.18;;;2.08;;
52158;SDS011;38145;53.182;6.284;2023-05-02T09:48:33;3.95;;;1.20;;
52158;SDS011;38145;53.182;6.284;2023-05-02T09:51:17;8.73;;;1.67;;
52158;SDS011;38145;53.182;6.284;2023-05-02T09:53:45;7.63;;;1.60;;
52158;SDS011;38145;53.182;6.284;2023-05-02T09:56:11;5.78;;;1.90;;
52158;SDS011;38145;53.182;6.284;2023-05-02T09:58:37;8.90;;;1.50;;
52158;SDS011;38145;53.182;6.284;2023-05-02T10:01:03;4.88;;;1.50;;
52158;SDS011;38145;53.182;6.284;2023-05-02T10:03:29;5.03;;;1.40;;
52158;SDS011;38145;53.182;6.284;2023-05-02T10:05:56;5.65;;;1.17;;
52158;SDS011;38145;53.182;6.284;2023-05-02T10:08:24;3.75;;;1.40;;
52158;SDS011;38145;53.182;6.284;2023-05-02T10:10:53;5.82;;;1.30;;
52158;SDS011;38145;53.182;6.284;2023-05-02T10:13:21;3.20;;;1.20;;
52158;SDS011;38145;53.182;6.284;2023-05-02T10:15:57;8.32;;;1.75;;
52158;SDS011;38145;53.182;6.284;2023-05-02T10:18:27;3.72;;;1.70;;
52158;SDS011;38145;53.182;6.284;2023-05-02T10:20:58;3.88;;;1.45;;
52158;SDS011;38145;53.182;6.284;2023-05-02T10:23:29;3.65;;;1.60;;
52158;SDS011;38145;53.182;6.284;2023-05-02T10:25:56;2.45;;;1.10;;
52158;SDS011;38145;53.182;6.284;2023-05-02T10:28:24;3.55;;;1.33;;
52158;SDS011;38145;53.182;6.284;2023-05-02T10:30:51;4.35;;;1.17;;
52158;SDS011;38145;53.182;6.284;2023-05-02T10:33:18;2.90;;;1.48;;
52158;SDS011;38145;53.182;6.284;2023-05-02T10:35:46;6.28;;;1.90;;
52158;SDS011;38145;53.182;6.284;2023-05-02T10:38:15;2.65;;;1.70;;
52158;SDS011;38145;53.182;6.284;2023-05-02T10:40:48;3.92;;;1.85;;
52158;SDS011;38145;53.182;6.284;2023-05-02T10:43:20;3.28;;;1.33;;
52158;SDS011;38145;53.182;6.284;2023-05-02T10:45:49;6.68;;;1.35;;
52158;SDS011;38145;53.182;6.284;2023-05-02T10:50:45;8.27;;;1.80;;
52158;SDS011;38145;53.182;6.284;2023-05-02T10:53:20;6.13;;;1.80;;
52158;SDS011;38145;53.182;6.284;2023-05-02T10:56:06;6.68;;;1.50;;
52158;SDS011;38145;53.182;6.284;2023-05-02T10:58:35;4.85;;;1.42;;
52158;SDS011;38145;53.182;6.284;2023-05-02T11:03:58;4.00;;;1.35;;
52158;SDS011;38145;53.182;6.284;2023-05-02T11:06:26;6.30;;;1.15;;
52158;SDS011;38145;53.182;6.284;2023-05-02T11:11:40;3.13;;;1.25;;
52158;SDS011;38145;53.182;6.284;2023-05-02T11:14:07;5.72;;;1.30;;
52158;SDS011;38145;53.182;6.284;2023-05-02T11:19:26;5.80;;;1.42;;
52158;SDS011;38145;53.182;6.284;2023-05-02T11:21:56;6.85;;;1.58;;
52158;SDS011;38145;53.182;6.284;2023-05-02T11:24:42;2.75;;;1.60;;
52158;SDS011;38145;53.182;6.284;2023-05-02T11:29:54;3.65;;;1.40;;
52158;SDS011;38145;53.182;6.284;2023-05-02T11:32:24;3.90;;;1.48;;
52158;SDS011;38145;53.182;6.284;2023-05-02T11:35:14;8.15;;;1.45;;
52158;SDS011;38145;53.182;6.284;2023-05-02T11:37:42;3.90;;;1.00;;
52158;SDS011;38145;53.182;6.284;2023-05-02T11:40:09;1.38;;;0.70;;
52158;SDS011;38145;53.182;6.284;2023-05-02T11:42:36;2.10;;;0.90;;
52158;SDS011;38145;53.182;6.284;2023-05-02T11:45:02;1.80;;;0.95;;
52158;SDS011;38145;53.182;6.284;2023-05-02T11:47:31;4.22;;;1.20;;
52158;SDS011;38145;53.182;6.284;2023-05-02T11:49:57;5.07;;;0.98;;
52158;SDS011;38145;53.182;6.284;2023-05-02T11:52:24;4.85;;;1.25;;
52158;SDS011;38145;53.182;6.284;2023-05-02T11:54:53;2.00;;;0.80;;
52158;SDS011;38145;53.182;6.284;2023-05-02T11:57:20;1.50;;;0.60;;
52158;SDS011;38145;53.182;6.284;2023-05-02T12:02:17;1.90;;;1.00;;
52158;SDS011;38145;53.182;6.284;2023-05-02T12:04:43;3.67;;;1.10;;
52158;SDS011;38145;53.182;6.284;2023-05-02T12:07:09;2.33;;;1.40;;
52158;SDS011;38145;53.182;6.284;2023-05-02T12:09:35;1.63;;;0.75;;
52158;SDS011;38145;53.182;6.284;2023-05-02T12:12:13;7.47;;;1.42;;
52158;SDS011;38145;53.182;6.284;2023-05-02T12:14:44;4.15;;;1.95;;
52158;SDS011;38145;53.182;6.284;2023-05-02T12:17:10;5.25;;;1.25;;
52158;SDS011;38145;53.182;6.284;2023-05-02T12:19:36;3.60;;;1.10;;
52158;SDS011;38145;53.182;6.284;2023-05-02T12:22:03;4.35;;;1.52;;
52158;SDS011;38145;53.182;6.284;2023-05-02T12:24:29;4.40;;;0.90;;
52158;SDS011;38145;53.182;6.284;2023-05-02T12:27:12;4.40;;;0.98;;
52158;SDS011;38145;53.182;6.284;2023-05-02T12:29:40;2.60;;;0.73;;
52158;SDS011;38145;53.182;6.284;2023-05-02T12:32:07;2.38;;;0.65;;
52158;SDS011;38145;53.182;6.284;2023-05-02T12:34:34;3.28;;;0.80;;
52158;SDS011;38145;53.182;6.284;2023-05-02T12:37:01;4.60;;;0.82;;
52158;SDS011;38145;53.182;6.284;2023-05-02T12:39:34;2.27;;;0.90;;
52158;SDS011;38145;53.182;6.284;2023-05-02T12:42:09;1.73;;;0.82;;
52158;SDS011;38145;53.182;6.284;2023-05-02T12:44:37;1.48;;;0.60;;
52158;SDS011;38145;53.182;6.284;2023-05-02T12:49:30;4.63;;;0.77;;
52158;SDS011;38145;53.182;6.284;2023-05-02T12:51:57;2.08;;;0.75;;
52158;SDS011;38145;53.182;6.284;2023-05-02T12:54:23;5.15;;;0.90;;
52158;SDS011;38145;53.182;6.284;2023-05-02T12:56:50;2.55;;;0.80;;
52158;SDS011;38145;53.182;6.284;2023-05-02T12:59:25;7.05;;;1.60;;
52158;SDS011;38145;53.182;6.284;2023-05-02T13:01:52;5.03;;;1.73;;
52158;SDS011;38145;53.182;6.284;2023-05-02T13:04:18;5.18;;;0.98;;
52158;SDS011;38145;53.182;6.284;2023-05-02T13:06:44;5.78;;;1.08;;
52158;SDS011;38145;53.182;6.284;2023-05-02T13:09:10;3.50;;;1.00;;
52158;SDS011;38145;53.182;6.284;2023-05-02T13:11:36;1.98;;;0.75;;
52158;SDS011;38145;53.182;6.284;2023-05-02T13:14:03;5.95;;;1.15;;
52158;SDS011;38145;53.182;6.284;2023-05-02T13:16:30;2.80;;;0.73;;
52158;SDS011;38145;53.182;6.284;2023-05-02T13:18:57;1.58;;;0.73;;
52158;SDS011;38145;53.182;6.284;2023-05-02T13:21:23;4.07;;;0.88;;
52158;SDS011;38145;53.182;6.284;2023-05-02T13:23:49;2.67;;;0.80;;
52158;SDS011;38145;53.182;6.284;2023-05-02T13:26:16;2.72;;;0.88;;
52158;SDS011;38145;53.182;6.284;2023-05-02T13:28:42;3.65;;;1.38;;
52158;SDS011;38145;53.182;6.284;2023-05-02T13:31:08;4.10;;;0.65;;
52158;SDS011;38145;53.182;6.284;2023-05-02T13:33:33;5.13;;;0.80;;
52158;SDS011;38145;53.182;6.284;2023-05-02T13:35:59;3.63;;;0.73;;
52158;SDS011;38145;53.182;6.284;2023-05-02T13:38:25;1.35;;;0.60;;
52158;SDS011;38145;53.182;6.284;2023-05-02T13:40:51;3.78;;;0.73;;
52158;SDS011;38145;53.182;6.284;2023-05-02T13:43:18;5.28;;;1.10;;
52158;SDS011;38145;53.182;6.284;2023-05-02T13:45:44;3.22;;;1.55;;
52158;SDS011;38145;53.182;6.284;2023-05-02T13:48:12;4.28;;;0.90;;
52158;SDS011;38145;53.182;6.284;2023-05-02T13:50:39;5.60;;;1.90;;
52158;SDS011;38145;53.182;6.284;2023-05-02T13:53:05;3.35;;;0.88;;
52158;SDS011;38145;53.182;6.284;2023-05-02T13:55:31;5.18;;;1.25;;
52158;SDS011;38145;53.182;6.284;2023-05-02T13:57:57;2.30;;;0.98;;
52158;SDS011;38145;53.182;6.284;2023-05-02T14:00:23;2.35;;;1.10;;
52158;SDS011;38145;53.182;6.284;2023-05-02T14:02:49;5.55;;;1.20;;
52158;SDS011;38145;53.182;6.284;2023-05-02T14:05:15;3.60;;;1.02;;
52158;SDS011;38145;53.182;6.284;2023-05-02T14:07:40;5.75;;;1.20;;
52158;SDS011;38145;53.182;6.284;2023-05-02T14:10:06;2.55;;;0.70;;
52158;SDS011;38145;53.182;6.284;2023-05-02T14:12:33;6.68;;;1.05;;
52158;SDS011;38145;53.182;6.284;2023-05-02T14:14:59;3.97;;;1.08;;
52158;SDS011;38145;53.182;6.284;2023-05-02T14:17:25;3.47;;;0.82;;
52158;SDS011;38145;53.182;6.284;2023-05-02T14:19:51;4.45;;;0.98;;
52158;SDS011;38145;53.182;6.284;2023-05-02T14:22:17;9.43;;;1.33;;
52158;SDS011;38145;53.182;6.284;2023-05-02T14:24:43;1.55;;;0.65;;
52158;SDS011;38145;53.182;6.284;2023-05-02T14:27:09;2.55;;;0.80;;
52158;SDS011;38145;53.182;6.284;2023-05-02T14:29:38;2.88;;;1.08;;
52158;SDS011;38145;53.182;6.284;2023-05-02T14:32:04;3.95;;;0.90;;
52158;SDS011;38145;53.182;6.284;2023-05-02T14:34:30;2.03;;;0.68;;
52158;SDS011;38145;53.182;6.284;2023-05-02T14:36:56;1.65;;;0.70;;
52158;SDS011;38145;53.182;6.284;2023-05-02T14:39:22;2.80;;;0.73;;
52158;SDS011;38145;53.182;6.284;2023-05-02T14:41:48;3.75;;;0.82;;
52158;SDS011;38145;53.182;6.284;2023-05-02T14:44:13;2.72;;;0.73;;
52158;SDS011;38145;53.182;6.284;2023-05-02T14:46:39;3.72;;;0.80;;
52158;SDS011;38145;53.182;6.284;2023-05-02T14:49:06;6.82;;;0.98;;
52158;SDS011;38145;53.182;6.284;2023-05-02T14:51:32;6.13;;;1.15;;
52158;SDS011;38145;53.182;6.284;2023-05-02T14:53:57;3.08;;;1.08;;
52158;SDS011;38145;53.182;6.284;2023-05-02T14:56:24;2.88;;;0.85;;
52158;SDS011;38145;53.182;6.284;2023-05-02T14:58:49;4.28;;;1.17;;
52158;SDS011;38145;53.182;6.284;2023-05-02T15:01:16;5.70;;;0.93;;
52158;SDS011;38145;53.182;6.284;2023-05-02T15:03:43;4.68;;;0.90;;
52158;SDS011;38145;53.182;6.284;2023-05-02T15:06:11;3.67;;;0.95;;
52158;SDS011;38145;53.182;6.284;2023-05-02T15:08:38;4.97;;;1.42;;
52158;SDS011;38145;53.182;6.284;2023-05-02T15:11:04;4.43;;;1.60;;
52158;SDS011;38145;53.182;6.284;2023-05-02T15:13:30;5.22;;;1.80;;
52158;SDS011;38145;53.182;6.284;2023-05-02T15:15:56;3.72;;;0.70;;
52158;SDS011;38145;53.182;6.284;2023-05-02T15:18:22;3.38;;;1.00;;
52158;SDS011;38145;53.182;6.284;2023-05-02T15:20:48;6.07;;;1.27;;
52158;SDS011;38145;53.182;6.284;2023-05-02T15:23:14;4.05;;;1.40;;
52158;SDS011;38145;53.182;6.284;2023-05-02T15:25:40;6.00;;;1.20;;
52158;SDS011;38145;53.182;6.284;2023-05-02T15:28:06;3.60;;;0.80;;